<?xml version="1.0" encoding="UTF-8" standalone="no" ?>
<gpx xmlns="http://www.topografix.com/GPX/1/1" xmlns:xsi="http://www.w3.org/2001/XMLSchema-instance" xsi:schemaLocation="http://www.topografix.com/GPX/1/1 http://www.topografix.com/GPX/1/1/gpx.xsd" version="1.1" creator="VisuGPX - https://www.visugpx.com">
  <metadata>
    <name>Traversée de la Dent d\'Oche</name>
    <desc><![CDATA[Traversée classique de la Dent D\'Oche]]></desc>
  </metadata>
  <trk>
    <name><![CDATA[2015-10-25 08:34]]></name>
    <desc><![CDATA[<h1>OruxMaps</h1><br /><hr align="center" width="480" style="height: 2px; width: 517px"/><h2>Name: 2015-10-25 08:34</h2><br /><p>Start time: 10/25/2015 08:34</p><p>Finish time: 10/25/2015 13:41</p><p>Distance: 8.2km (05:07)</p><p>Moving time: 02:43</p><p>Average speed: 1.6km/h</p><p>Avg. Speed Mov.: 3km/h</p><p>Max. Speed: 13.7km/h</p><p>Minimum altitude: -9438m</p><p>Maximum altitude: 2214m</p><p>Ascent speed: 7308.1m/h</p><p>Descent speed: -9665.4m/h</p><p>Elevation gain: 21059m</p><p>Elevation loss: -21050m</p><p>Ascent time: 02:52</p><p>Descent time: 02:10</p><hr align="center" width="480" style="height: 2px; width: 517px"/>]]></desc>
    <trkseg>
      <trkpt lat="46.3467" lon="6.70817">
        <ele>1220.72</ele>
        <time>2015-10-25T07:34:11Z</time>
      </trkpt>
      <trkpt lat="46.3466" lon="6.70839">
        <ele>1223.8</ele>
        <time>2015-10-25T07:35:16Z</time>
      </trkpt>
      <trkpt lat="46.34663" lon="6.7087">
        <ele>1231.13</ele>
        <time>2015-10-25T07:35:59Z</time>
      </trkpt>
      <trkpt lat="46.34678" lon="6.70887">
        <ele>1233.6</ele>
        <time>2015-10-25T07:36:21Z</time>
      </trkpt>
      <trkpt lat="46.34696" lon="6.70899">
        <ele>1235.11</ele>
        <time>2015-10-25T07:36:37Z</time>
      </trkpt>
      <trkpt lat="46.34712" lon="6.70912">
        <ele>1237.48</ele>
        <time>2015-10-25T07:36:51Z</time>
      </trkpt>
      <trkpt lat="46.34727" lon="6.70928">
        <ele>1240.99</ele>
        <time>2015-10-25T07:37:46Z</time>
      </trkpt>
      <trkpt lat="46.34745" lon="6.70931">
        <ele>1240.52</ele>
        <time>2015-10-25T07:38:36Z</time>
      </trkpt>
      <trkpt lat="46.34764" lon="6.70936">
        <ele>1242.58</ele>
        <time>2015-10-25T07:38:57Z</time>
      </trkpt>
      <trkpt lat="46.3478" lon="6.70948">
        <ele>1247.6</ele>
        <time>2015-10-25T07:39:18Z</time>
      </trkpt>
      <trkpt lat="46.34799" lon="6.70946">
        <ele>1248.43</ele>
        <time>2015-10-25T07:43:06Z</time>
      </trkpt>
      <trkpt lat="46.34818" lon="6.7095">
        <ele>1251.45</ele>
        <time>2015-10-25T07:43:24Z</time>
      </trkpt>
      <trkpt lat="46.34833" lon="6.70965">
        <ele>1258.59</ele>
        <time>2015-10-25T07:44:05Z</time>
      </trkpt>
      <trkpt lat="46.34817" lon="6.70979">
        <ele>1262.38</ele>
        <time>2015-10-25T07:45:01Z</time>
      </trkpt>
      <trkpt lat="46.34801" lon="6.70992">
        <ele>1264.97</ele>
        <time>2015-10-25T07:45:05Z</time>
      </trkpt>
      <trkpt lat="46.34782" lon="6.70996">
        <ele>1263.6</ele>
        <time>2015-10-25T07:45:12Z</time>
      </trkpt>
      <trkpt lat="46.3476" lon="6.71002">
        <ele>1262.44</ele>
        <time>2015-10-25T07:45:25Z</time>
      </trkpt>
      <trkpt lat="46.34744" lon="6.71017">
        <ele>1269.59</ele>
        <time>2015-10-25T07:45:56Z</time>
      </trkpt>
      <trkpt lat="46.34727" lon="6.71031">
        <ele>1278.06</ele>
        <time>2015-10-25T07:46:11Z</time>
      </trkpt>
      <trkpt lat="46.34709" lon="6.71038">
        <ele>1283.72</ele>
        <time>2015-10-25T07:46:39Z</time>
      </trkpt>
      <trkpt lat="46.3469" lon="6.71037">
        <ele>1285.01</ele>
        <time>2015-10-25T07:47:08Z</time>
      </trkpt>
      <trkpt lat="46.34674" lon="6.71026">
        <ele>1281.13</ele>
        <time>2015-10-25T07:47:25Z</time>
      </trkpt>
      <trkpt lat="46.34656" lon="6.71015">
        <ele>1278.51</ele>
        <time>2015-10-25T07:47:34Z</time>
      </trkpt>
      <trkpt lat="46.34638" lon="6.71013">
        <ele>1281.98</ele>
        <time>2015-10-25T07:48:15Z</time>
      </trkpt>
      <trkpt lat="46.34623" lon="6.70993">
        <ele>1277.66</ele>
        <time>2015-10-25T07:48:56Z</time>
      </trkpt>
      <trkpt lat="46.3461" lon="6.71013">
        <ele>1288.29</ele>
        <time>2015-10-25T07:49:25Z</time>
      </trkpt>
      <trkpt lat="46.34594" lon="6.71027">
        <ele>1296.88</ele>
        <time>2015-10-25T07:49:46Z</time>
      </trkpt>
      <trkpt lat="46.34588" lon="6.71053">
        <ele>1306.46</ele>
        <time>2015-10-25T07:50:26Z</time>
      </trkpt>
      <trkpt lat="46.34605" lon="6.71059">
        <ele>1306.07</ele>
        <time>2015-10-25T07:51:17Z</time>
      </trkpt>
      <trkpt lat="46.34605" lon="6.71085">
        <ele>1315.58</ele>
        <time>2015-10-25T07:52:20Z</time>
      </trkpt>
      <trkpt lat="46.34611" lon="6.71111">
        <ele>1323.26</ele>
        <time>2015-10-25T07:52:48Z</time>
      </trkpt>
      <trkpt lat="46.34603" lon="6.71135">
        <ele>1329.59</ele>
        <time>2015-10-25T07:53:20Z</time>
      </trkpt>
      <trkpt lat="46.34603" lon="6.71162">
        <ele>1337.1</ele>
        <time>2015-10-25T07:53:49Z</time>
      </trkpt>
      <trkpt lat="46.34607" lon="6.71189">
        <ele>1346.91</ele>
        <time>2015-10-25T07:54:23Z</time>
      </trkpt>
      <trkpt lat="46.34616" lon="6.71213">
        <ele>1357.51</ele>
        <time>2015-10-25T07:55:02Z</time>
      </trkpt>
      <trkpt lat="46.34618" lon="6.71239">
        <ele>1366.86</ele>
        <time>2015-10-25T07:55:38Z</time>
      </trkpt>
      <trkpt lat="46.34619" lon="6.71267">
        <ele>1376.43</ele>
        <time>2015-10-25T07:57:33Z</time>
      </trkpt>
      <trkpt lat="46.3462" lon="6.71296">
        <ele>1386.46</ele>
        <time>2015-10-25T07:57:42Z</time>
      </trkpt>
      <trkpt lat="46.34603" lon="6.71307">
        <ele>1382.74</ele>
        <time>2015-10-25T07:58:04Z</time>
      </trkpt>
      <trkpt lat="46.34591" lon="6.7133">
        <ele>1384.54</ele>
        <time>2015-10-25T07:58:36Z</time>
      </trkpt>
      <trkpt lat="46.34581" lon="6.71352">
        <ele>1388.26</ele>
        <time>2015-10-25T07:58:53Z</time>
      </trkpt>
      <trkpt lat="46.34571" lon="6.71375">
        <ele>1394.3</ele>
        <time>2015-10-25T07:59:12Z</time>
      </trkpt>
      <trkpt lat="46.34561" lon="6.71397">
        <ele>1399.55</ele>
        <time>2015-10-25T07:59:50Z</time>
      </trkpt>
      <trkpt lat="46.34562" lon="6.71423">
        <ele>1408.2</ele>
        <time>2015-10-25T08:00:52Z</time>
      </trkpt>
      <trkpt lat="46.34564" lon="6.71449">
        <ele>1415.83</ele>
        <time>2015-10-25T08:01:35Z</time>
      </trkpt>
      <trkpt lat="46.34572" lon="6.71474">
        <ele>1424.58</ele>
        <time>2015-10-25T08:02:22Z</time>
      </trkpt>
      <trkpt lat="46.34563" lon="6.71497">
        <ele>1429.01</ele>
        <time>2015-10-25T08:02:59Z</time>
      </trkpt>
      <trkpt lat="46.34579" lon="6.71513">
        <ele>1437.85</ele>
        <time>2015-10-25T08:03:45Z</time>
      </trkpt>
      <trkpt lat="46.34597" lon="6.71519">
        <ele>1444.57</ele>
        <time>2015-10-25T08:04:24Z</time>
      </trkpt>
      <trkpt lat="46.34609" lon="6.71499">
        <ele>1441.19</ele>
        <time>2015-10-25T08:04:53Z</time>
      </trkpt>
      <trkpt lat="46.34627" lon="6.71495">
        <ele>1445.54</ele>
        <time>2015-10-25T08:05:56Z</time>
      </trkpt>
      <trkpt lat="46.34637" lon="6.71516">
        <ele>1454.31</ele>
        <time>2015-10-25T08:06:30Z</time>
      </trkpt>
      <trkpt lat="46.3464" lon="6.71542">
        <ele>1462.37</ele>
        <time>2015-10-25T08:07:16Z</time>
      </trkpt>
      <trkpt lat="46.34658" lon="6.71535">
        <ele>1464.41</ele>
        <time>2015-10-25T08:07:59Z</time>
      </trkpt>
      <trkpt lat="46.34668" lon="6.71558">
        <ele>1472.23</ele>
        <time>2015-10-25T08:08:44Z</time>
      </trkpt>
      <trkpt lat="46.34667" lon="6.71584">
        <ele>1478.27</ele>
        <time>2015-10-25T08:09:18Z</time>
      </trkpt>
      <trkpt lat="46.34669" lon="6.7161">
        <ele>1487.84</ele>
        <time>2015-10-25T08:09:42Z</time>
      </trkpt>
      <trkpt lat="46.34682" lon="6.71629">
        <ele>1496.36</ele>
        <time>2015-10-25T08:10:23Z</time>
      </trkpt>
      <trkpt lat="46.34685" lon="6.71656">
        <ele>1505.27</ele>
        <time>2015-10-25T08:11:02Z</time>
      </trkpt>
      <trkpt lat="46.34689" lon="6.71682">
        <ele>1513.39</ele>
        <time>2015-10-25T08:11:38Z</time>
      </trkpt>
      <trkpt lat="46.34686" lon="6.71708">
        <ele>1521.17</ele>
        <time>2015-10-25T08:12:18Z</time>
      </trkpt>
      <trkpt lat="46.34692" lon="6.71733">
        <ele>1528.23</ele>
        <time>2015-10-25T08:12:41Z</time>
      </trkpt>
      <trkpt lat="46.34693" lon="6.71759">
        <ele>1535.11</ele>
        <time>2015-10-25T08:13:12Z</time>
      </trkpt>
      <trkpt lat="46.34691" lon="6.71786">
        <ele>1540.6</ele>
        <time>2015-10-25T08:13:48Z</time>
      </trkpt>
      <trkpt lat="46.34696" lon="6.71811">
        <ele>1544.99</ele>
        <time>2015-10-25T08:14:18Z</time>
      </trkpt>
      <trkpt lat="46.34713" lon="6.71817">
        <ele>1543.72</ele>
        <time>2015-10-25T08:14:41Z</time>
      </trkpt>
      <trkpt lat="46.34723" lon="6.7184">
        <ele>1546.66</ele>
        <time>2015-10-25T08:15:54Z</time>
      </trkpt>
      <trkpt lat="46.3473" lon="6.71865">
        <ele>1550.92</ele>
        <time>2015-10-25T08:16:21Z</time>
      </trkpt>
      <trkpt lat="46.34735" lon="6.7189">
        <ele>1555.88</ele>
        <time>2015-10-25T08:17:05Z</time>
      </trkpt>
      <trkpt lat="46.34728" lon="6.71915">
        <ele>1561.69</ele>
        <time>2015-10-25T08:17:38Z</time>
      </trkpt>
      <trkpt lat="46.34734" lon="6.71941">
        <ele>1567.46</ele>
        <time>2015-10-25T08:18:08Z</time>
      </trkpt>
      <trkpt lat="46.34722" lon="6.71962">
        <ele>1572.09</ele>
        <time>2015-10-25T08:18:42Z</time>
      </trkpt>
      <trkpt lat="46.34718" lon="6.71988">
        <ele>1577.54</ele>
        <time>2015-10-25T08:19:08Z</time>
      </trkpt>
      <trkpt lat="46.34709" lon="6.72012">
        <ele>1581.54</ele>
        <time>2015-10-25T08:19:36Z</time>
      </trkpt>
      <trkpt lat="46.34706" lon="6.72038">
        <ele>1585.96</ele>
        <time>2015-10-25T08:20:12Z</time>
      </trkpt>
      <trkpt lat="46.34715" lon="6.72061">
        <ele>1590.64</ele>
        <time>2015-10-25T08:21:40Z</time>
      </trkpt>
      <trkpt lat="46.3473" lon="6.72076">
        <ele>1594.72</ele>
        <time>2015-10-25T08:21:56Z</time>
      </trkpt>
      <trkpt lat="46.3473" lon="6.72104">
        <ele>1599.71</ele>
        <time>2015-10-25T08:22:24Z</time>
      </trkpt>
      <trkpt lat="46.34731" lon="6.72131">
        <ele>1604.76</ele>
        <time>2015-10-25T08:22:51Z</time>
      </trkpt>
      <trkpt lat="46.34726" lon="6.72157">
        <ele>1609.02</ele>
        <time>2015-10-25T08:23:11Z</time>
      </trkpt>
      <trkpt lat="46.34728" lon="6.72185">
        <ele>1613.27</ele>
        <time>2015-10-25T08:23:37Z</time>
      </trkpt>
      <trkpt lat="46.34724" lon="6.72211">
        <ele>1616.23</ele>
        <time>2015-10-25T08:24:00Z</time>
      </trkpt>
      <trkpt lat="46.34724" lon="6.72237">
        <ele>1619.57</ele>
        <time>2015-10-25T08:24:24Z</time>
      </trkpt>
      <trkpt lat="46.34716" lon="6.7226">
        <ele>1620.86</ele>
        <time>2015-10-25T08:24:46Z</time>
      </trkpt>
      <trkpt lat="46.34704" lon="6.7228">
        <ele>1620.57</ele>
        <time>2015-10-25T08:25:08Z</time>
      </trkpt>
      <trkpt lat="46.34696" lon="6.72305">
        <ele>1621.05</ele>
        <time>2015-10-25T08:25:34Z</time>
      </trkpt>
      <trkpt lat="46.34695" lon="6.72331">
        <ele>1622.68</ele>
        <time>2015-10-25T08:26:00Z</time>
      </trkpt>
      <trkpt lat="46.34694" lon="6.72358">
        <ele>1623.64</ele>
        <time>2015-10-25T08:26:26Z</time>
      </trkpt>
      <trkpt lat="46.34693" lon="6.72386">
        <ele>1624.7</ele>
        <time>2015-10-25T08:26:48Z</time>
      </trkpt>
      <trkpt lat="46.34691" lon="6.72412">
        <ele>1625.46</ele>
        <time>2015-10-25T08:27:09Z</time>
      </trkpt>
      <trkpt lat="46.34698" lon="6.72439">
        <ele>1627.61</ele>
        <time>2015-10-25T08:27:34Z</time>
      </trkpt>
      <trkpt lat="46.34714" lon="6.72455">
        <ele>1632.48</ele>
        <time>2015-10-25T08:30:14Z</time>
      </trkpt>
      <trkpt lat="46.34727" lon="6.72473">
        <ele>1637.72</ele>
        <time>2015-10-25T08:30:38Z</time>
      </trkpt>
      <trkpt lat="46.34745" lon="6.72475">
        <ele>1643.82</ele>
        <time>2015-10-25T08:31:06Z</time>
      </trkpt>
      <trkpt lat="46.34765" lon="6.72478">
        <ele>1652.97</ele>
        <time>2015-10-25T08:32:01Z</time>
      </trkpt>
      <trkpt lat="46.34782" lon="6.72467">
        <ele>1660.34</ele>
        <time>2015-10-25T08:32:29Z</time>
      </trkpt>
      <trkpt lat="46.348" lon="6.7246">
        <ele>1668.34</ele>
        <time>2015-10-25T08:33:07Z</time>
      </trkpt>
      <trkpt lat="46.34816" lon="6.72447">
        <ele>1674.66</ele>
        <time>2015-10-25T08:33:58Z</time>
      </trkpt>
      <trkpt lat="46.34827" lon="6.72426">
        <ele>1677.94</ele>
        <time>2015-10-25T08:34:21Z</time>
      </trkpt>
      <trkpt lat="46.34842" lon="6.7244">
        <ele>1688.69</ele>
        <time>2015-10-25T08:35:06Z</time>
      </trkpt>
      <trkpt lat="46.34852" lon="6.72463">
        <ele>1698.01</ele>
        <time>2015-10-25T08:35:45Z</time>
      </trkpt>
      <trkpt lat="46.34854" lon="6.7249">
        <ele>1703.27</ele>
        <time>2015-10-25T08:36:12Z</time>
      </trkpt>
      <trkpt lat="46.3486" lon="6.72515">
        <ele>1709.7</ele>
        <time>2015-10-25T08:36:37Z</time>
      </trkpt>
      <trkpt lat="46.34856" lon="6.72542">
        <ele>1709.15</ele>
        <time>2015-10-25T08:37:18Z</time>
      </trkpt>
      <trkpt lat="46.34862" lon="6.72566">
        <ele>1715.38</ele>
        <time>2015-10-25T08:37:49Z</time>
      </trkpt>
      <trkpt lat="46.34862" lon="6.72593">
        <ele>1716.55</ele>
        <time>2015-10-25T08:38:20Z</time>
      </trkpt>
      <trkpt lat="46.34866" lon="6.72619">
        <ele>1718.75</ele>
        <time>2015-10-25T08:38:47Z</time>
      </trkpt>
      <trkpt lat="46.34875" lon="6.72642">
        <ele>1723.53</ele>
        <time>2015-10-25T08:39:14Z</time>
      </trkpt>
      <trkpt lat="46.34881" lon="6.72667">
        <ele>1726.13</ele>
        <time>2015-10-25T08:39:39Z</time>
      </trkpt>
      <trkpt lat="46.34884" lon="6.72693">
        <ele>1726.37</ele>
        <time>2015-10-25T08:40:23Z</time>
      </trkpt>
      <trkpt lat="46.34886" lon="6.72719">
        <ele>1726.31</ele>
        <time>2015-10-25T08:40:50Z</time>
      </trkpt>
      <trkpt lat="46.34902" lon="6.72734">
        <ele>1730.45</ele>
        <time>2015-10-25T08:41:38Z</time>
      </trkpt>
      <trkpt lat="46.34913" lon="6.72755">
        <ele>1729</ele>
        <time>2015-10-25T08:42:16Z</time>
      </trkpt>
      <trkpt lat="46.34928" lon="6.72771">
        <ele>1748.47</ele>
        <time>2015-10-25T08:43:08Z</time>
      </trkpt>
      <trkpt lat="46.3493" lon="6.72797">
        <ele>1766.47</ele>
        <time>2015-10-25T08:43:57Z</time>
      </trkpt>
      <trkpt lat="46.34948" lon="6.7279">
        <ele>1780.47</ele>
        <time>2015-10-25T08:45:09Z</time>
      </trkpt>
      <trkpt lat="46.3496" lon="6.72769">
        <ele>1783.47</ele>
        <time>2015-10-25T08:46:07Z</time>
      </trkpt>
      <trkpt lat="46.34961" lon="6.72742">
        <ele>1782.47</ele>
        <time>2015-10-25T08:46:44Z</time>
      </trkpt>
      <trkpt lat="46.34973" lon="6.72723">
        <ele>1792.47</ele>
        <time>2015-10-25T08:47:25Z</time>
      </trkpt>
      <trkpt lat="46.34979" lon="6.72698">
        <ele>1802.47</ele>
        <time>2015-10-25T08:48:18Z</time>
      </trkpt>
      <trkpt lat="46.34995" lon="6.72674">
        <ele>1825.47</ele>
        <time>2015-10-25T08:48:53Z</time>
      </trkpt>
      <trkpt lat="46.34991" lon="6.72648">
        <ele>1819.47</ele>
        <time>2015-10-25T08:49:55Z</time>
      </trkpt>
      <trkpt lat="46.35003" lon="6.72628">
        <ele>1831.47</ele>
        <time>2015-10-25T08:50:37Z</time>
      </trkpt>
      <trkpt lat="46.3502" lon="6.72618">
        <ele>1848</ele>
        <time>2015-10-25T08:53:05Z</time>
      </trkpt>
      <trkpt lat="46.35031" lon="6.72596">
        <ele>1852</ele>
        <time>2015-10-25T08:53:49Z</time>
      </trkpt>
      <trkpt lat="46.35036" lon="6.72571">
        <ele>1854.23</ele>
        <time>2015-10-25T08:54:24Z</time>
      </trkpt>
      <trkpt lat="46.35046" lon="6.72549">
        <ele>1862.88</ele>
        <time>2015-10-25T08:54:54Z</time>
      </trkpt>
      <trkpt lat="46.35047" lon="6.72523">
        <ele>1862.06</ele>
        <time>2015-10-25T08:55:22Z</time>
      </trkpt>
      <trkpt lat="46.35051" lon="6.72496">
        <ele>1863.79</ele>
        <time>2015-10-25T08:58:52Z</time>
      </trkpt>
      <trkpt lat="46.35069" lon="6.72497">
        <ele>1881.26</ele>
        <time>2015-10-25T08:59:56Z</time>
      </trkpt>
      <trkpt lat="46.35087" lon="6.72494">
        <ele>1896.95</ele>
        <time>2015-10-25T09:01:30Z</time>
      </trkpt>
      <trkpt lat="46.35095" lon="6.72518">
        <ele>1904.72</ele>
        <time>2015-10-25T09:02:15Z</time>
      </trkpt>
      <trkpt lat="46.35108" lon="6.725">
        <ele>1910.94</ele>
        <time>2015-10-25T09:03:00Z</time>
      </trkpt>
      <trkpt lat="46.35122" lon="6.72483">
        <ele>1914.89</ele>
        <time>2015-10-25T09:03:43Z</time>
      </trkpt>
      <trkpt lat="46.35135" lon="6.725">
        <ele>1927.3</ele>
        <time>2015-10-25T09:05:10Z</time>
      </trkpt>
      <trkpt lat="46.35136" lon="6.72527">
        <ele>1931.87</ele>
        <time>2015-10-25T09:05:42Z</time>
      </trkpt>
      <trkpt lat="46.35151" lon="6.72543">
        <ele>1944.22</ele>
        <time>2015-10-25T09:07:33Z</time>
      </trkpt>
      <trkpt lat="46.35159" lon="6.72567">
        <ele>1953.38</ele>
        <time>2015-10-25T09:08:21Z</time>
      </trkpt>
      <trkpt lat="46.35161" lon="6.72593">
        <ele>1960.36</ele>
        <time>2015-10-25T09:09:13Z</time>
      </trkpt>
      <trkpt lat="46.35165" lon="6.72618">
        <ele>1970.34</ele>
        <time>2015-10-25T09:10:11Z</time>
      </trkpt>
      <trkpt lat="46.35179" lon="6.72635">
        <ele>1975.61</ele>
        <time>2015-10-25T09:11:24Z</time>
      </trkpt>
      <trkpt lat="46.35191" lon="6.72655">
        <ele>1981.66</ele>
        <time>2015-10-25T09:12:17Z</time>
      </trkpt>
      <trkpt lat="46.352" lon="6.72678">
        <ele>1991.13</ele>
        <time>2015-10-25T09:13:50Z</time>
      </trkpt>
      <trkpt lat="46.35211" lon="6.72698">
        <ele>2001.58</ele>
        <time>2015-10-25T09:16:53Z</time>
      </trkpt>
      <trkpt lat="46.35225" lon="6.72716">
        <ele>2011.59</ele>
        <time>2015-10-25T09:18:01Z</time>
      </trkpt>
      <trkpt lat="46.35236" lon="6.72738">
        <ele>2024.05</ele>
        <time>2015-10-25T09:21:17Z</time>
      </trkpt>
      <trkpt lat="46.35248" lon="6.72759">
        <ele>2024</ele>
        <time>2015-10-25T09:22:39Z</time>
      </trkpt>
      <trkpt lat="46.35259" lon="6.72779">
        <ele>1973</ele>
        <time>2015-10-25T09:24:38Z</time>
      </trkpt>
      <trkpt lat="46.35258" lon="6.72806">
        <ele>2091.47</ele>
        <time>2015-10-25T09:27:45Z</time>
      </trkpt>
      <trkpt lat="46.35267" lon="6.72829">
        <ele>2105.47</ele>
        <time>2015-10-25T09:29:39Z</time>
      </trkpt>
      <trkpt lat="46.35249" lon="6.72835">
        <ele>2114.47</ele>
        <time>2015-10-25T09:34:51Z</time>
      </trkpt>
      <trkpt lat="46.35261" lon="6.72854">
        <ele>2112.47</ele>
        <time>2015-10-25T09:39:32Z</time>
      </trkpt>
      <trkpt lat="46.35272" lon="6.72875">
        <ele>2121.47</ele>
        <time>2015-10-25T09:40:02Z</time>
      </trkpt>
      <trkpt lat="46.35282" lon="6.72897">
        <ele>2126.47</ele>
        <time>2015-10-25T09:40:56Z</time>
      </trkpt>
      <trkpt lat="46.35287" lon="6.72923">
        <ele>2128.47</ele>
        <time>2015-10-25T09:41:49Z</time>
      </trkpt>
      <trkpt lat="46.35275" lon="6.72945">
        <ele>2140.47</ele>
        <time>2015-10-25T09:43:16Z</time>
      </trkpt>
      <trkpt lat="46.35279" lon="6.72971">
        <ele>2156.47</ele>
        <time>2015-10-25T09:44:53Z</time>
      </trkpt>
      <trkpt lat="46.35264" lon="6.72987">
        <ele>2169.47</ele>
        <time>2015-10-25T09:46:41Z</time>
      </trkpt>
      <trkpt lat="46.35246" lon="6.72988">
        <ele>2172.47</ele>
        <time>2015-10-25T09:49:59Z</time>
      </trkpt>
      <trkpt lat="46.3526" lon="6.73005">
        <ele>2191.47</ele>
        <time>2015-10-25T09:52:43Z</time>
      </trkpt>
      <trkpt lat="46.35274" lon="6.73022">
        <ele>2199.47</ele>
        <time>2015-10-25T09:54:01Z</time>
      </trkpt>
      <trkpt lat="46.35277" lon="6.73049">
        <ele>2204.47</ele>
        <time>2015-10-25T09:57:25Z</time>
      </trkpt>
      <trkpt lat="46.3528" lon="6.73075">
        <ele>2205.47</ele>
        <time>2015-10-25T09:57:58Z</time>
      </trkpt>
      <trkpt lat="46.3529" lon="6.73096">
        <ele>2200.47</ele>
        <time>2015-10-25T09:59:32Z</time>
      </trkpt>
      <trkpt lat="46.35292" lon="6.73123">
        <ele>2211.47</ele>
        <time>2015-10-25T09:59:58Z</time>
      </trkpt>
      <trkpt lat="46.35293" lon="6.7315">
        <ele>2214.47</ele>
        <time>2015-10-25T10:12:50Z</time>
      </trkpt>
      <trkpt lat="46.35303" lon="6.73172">
        <ele>2208.47</ele>
        <time>2015-10-25T10:13:38Z</time>
      </trkpt>
      <trkpt lat="46.35304" lon="6.73199">
        <ele>2205.47</ele>
        <time>2015-10-25T10:14:58Z</time>
      </trkpt>
      <trkpt lat="46.35299" lon="6.73224">
        <ele>2202.47</ele>
        <time>2015-10-25T10:15:37Z</time>
      </trkpt>
      <trkpt lat="46.35291" lon="6.73248">
        <ele>2203.47</ele>
        <time>2015-10-25T10:16:28Z</time>
      </trkpt>
      <trkpt lat="46.35292" lon="6.73274">
        <ele>2192.47</ele>
        <time>2015-10-25T10:17:45Z</time>
      </trkpt>
      <trkpt lat="46.35276" lon="6.73298">
        <ele>2165.47</ele>
        <time>2015-10-25T10:19:24Z</time>
      </trkpt>
      <trkpt lat="46.35267" lon="6.73321">
        <ele>2163.47</ele>
        <time>2015-10-25T10:22:35Z</time>
      </trkpt>
      <trkpt lat="46.3526" lon="6.73345">
        <ele>2160.47</ele>
        <time>2015-10-25T10:23:50Z</time>
      </trkpt>
      <trkpt lat="46.35245" lon="6.73362">
        <ele>2154.47</ele>
        <time>2015-10-25T10:24:56Z</time>
      </trkpt>
      <trkpt lat="46.35231" lon="6.73381">
        <ele>2147.47</ele>
        <time>2015-10-25T10:25:34Z</time>
      </trkpt>
      <trkpt lat="46.35227" lon="6.73418">
        <ele>2137.47</ele>
        <time>2015-10-25T10:27:11Z</time>
      </trkpt>
      <trkpt lat="46.35233" lon="6.73443">
        <ele>2121.47</ele>
        <time>2015-10-25T10:28:02Z</time>
      </trkpt>
      <trkpt lat="46.35222" lon="6.73464">
        <ele>2107.47</ele>
        <time>2015-10-25T10:29:27Z</time>
      </trkpt>
      <trkpt lat="46.35209" lon="6.73483">
        <ele>2106.47</ele>
        <time>2015-10-25T10:30:03Z</time>
      </trkpt>
      <trkpt lat="46.35193" lon="6.73494">
        <ele>2087.47</ele>
        <time>2015-10-25T10:33:12Z</time>
      </trkpt>
      <trkpt lat="46.35189" lon="6.73521">
        <ele>2082.47</ele>
        <time>2015-10-25T10:34:15Z</time>
      </trkpt>
      <trkpt lat="46.35188" lon="6.73547">
        <ele>2071.47</ele>
        <time>2015-10-25T10:35:54Z</time>
      </trkpt>
      <trkpt lat="46.35178" lon="6.7357">
        <ele>2073.47</ele>
        <time>2015-10-25T10:36:07Z</time>
      </trkpt>
      <trkpt lat="46.35182" lon="6.73596">
        <ele>2046.47</ele>
        <time>2015-10-25T10:39:21Z</time>
      </trkpt>
      <trkpt lat="46.35177" lon="6.73621">
        <ele>2039.47</ele>
        <time>2015-10-25T10:40:43Z</time>
      </trkpt>
      <trkpt lat="46.3518" lon="6.73647">
        <ele>2029.47</ele>
        <time>2015-10-25T10:42:38Z</time>
      </trkpt>
      <trkpt lat="46.35182" lon="6.73674">
        <ele>2012.47</ele>
        <time>2015-10-25T10:44:37Z</time>
      </trkpt>
      <trkpt lat="46.35175" lon="6.73698">
        <ele>2004.47</ele>
        <time>2015-10-25T10:45:27Z</time>
      </trkpt>
      <trkpt lat="46.35168" lon="6.73723">
        <ele>1999</ele>
        <time>2015-10-25T10:46:26Z</time>
      </trkpt>
      <trkpt lat="46.35154" lon="6.73742">
        <ele>2014</ele>
        <time>2015-10-25T10:47:25Z</time>
      </trkpt>
      <trkpt lat="46.3514" lon="6.73757">
        <ele>2009.86</ele>
        <time>2015-10-25T10:48:18Z</time>
      </trkpt>
      <trkpt lat="46.35123" lon="6.73769">
        <ele>1999.73</ele>
        <time>2015-10-25T10:49:52Z</time>
      </trkpt>
      <trkpt lat="46.35112" lon="6.73791">
        <ele>1994.21</ele>
        <time>2015-10-25T10:52:02Z</time>
      </trkpt>
      <trkpt lat="46.35101" lon="6.73814">
        <ele>1989.25</ele>
        <time>2015-10-25T10:53:13Z</time>
      </trkpt>
      <trkpt lat="46.35094" lon="6.73839">
        <ele>1986.59</ele>
        <time>2015-10-25T10:53:37Z</time>
      </trkpt>
      <trkpt lat="46.35091" lon="6.73866">
        <ele>1985.65</ele>
        <time>2015-10-25T10:54:04Z</time>
      </trkpt>
      <trkpt lat="46.3509" lon="6.73893">
        <ele>1985.39</ele>
        <time>2015-10-25T10:54:29Z</time>
      </trkpt>
      <trkpt lat="46.35081" lon="6.73916">
        <ele>1971.54</ele>
        <time>2015-10-25T10:55:32Z</time>
      </trkpt>
      <trkpt lat="46.35064" lon="6.73906">
        <ele>1977</ele>
        <time>2015-10-25T10:56:57Z</time>
      </trkpt>
      <trkpt lat="46.35047" lon="6.73896">
        <ele>1975</ele>
        <time>2015-10-25T10:57:54Z</time>
      </trkpt>
      <trkpt lat="46.35046" lon="6.73869">
        <ele>1976</ele>
        <time>2015-10-25T10:58:56Z</time>
      </trkpt>
      <trkpt lat="46.35045" lon="6.73843">
        <ele>1923.47</ele>
        <time>2015-10-25T10:59:36Z</time>
      </trkpt>
      <trkpt lat="46.3504" lon="6.73818">
        <ele>1922.47</ele>
        <time>2015-10-25T11:00:21Z</time>
      </trkpt>
      <trkpt lat="46.35022" lon="6.73825">
        <ele>1926.47</ele>
        <time>2015-10-25T11:00:53Z</time>
      </trkpt>
      <trkpt lat="46.35004" lon="6.73813">
        <ele>1921.47</ele>
        <time>2015-10-25T11:01:27Z</time>
      </trkpt>
      <trkpt lat="46.35007" lon="6.73787">
        <ele>1923.47</ele>
        <time>2015-10-25T11:01:52Z</time>
      </trkpt>
      <trkpt lat="46.35006" lon="6.7376">
        <ele>1889.47</ele>
        <time>2015-10-25T11:02:28Z</time>
      </trkpt>
      <trkpt lat="46.35007" lon="6.73733">
        <ele>1884.47</ele>
        <time>2015-10-25T11:02:53Z</time>
      </trkpt>
      <trkpt lat="46.35002" lon="6.73708">
        <ele>1907.47</ele>
        <time>2015-10-25T11:03:21Z</time>
      </trkpt>
      <trkpt lat="46.34994" lon="6.73682">
        <ele>1898.47</ele>
        <time>2015-10-25T11:03:42Z</time>
      </trkpt>
      <trkpt lat="46.3498" lon="6.73699">
        <ele>1882.47</ele>
        <time>2015-10-25T11:04:06Z</time>
      </trkpt>
      <trkpt lat="46.34964" lon="6.73711">
        <ele>1880.47</ele>
        <time>2015-10-25T11:04:27Z</time>
      </trkpt>
      <trkpt lat="46.34959" lon="6.73685">
        <ele>1891.47</ele>
        <time>2015-10-25T11:05:36Z</time>
      </trkpt>
      <trkpt lat="46.34957" lon="6.73659">
        <ele>1877.47</ele>
        <time>2015-10-25T11:06:00Z</time>
      </trkpt>
      <trkpt lat="46.34944" lon="6.73677">
        <ele>1882.47</ele>
        <time>2015-10-25T11:06:22Z</time>
      </trkpt>
      <trkpt lat="46.3494" lon="6.73651">
        <ele>1863.47</ele>
        <time>2015-10-25T11:07:06Z</time>
      </trkpt>
      <trkpt lat="46.3493" lon="6.73627">
        <ele>1825.47</ele>
        <time>2015-10-25T11:07:34Z</time>
      </trkpt>
      <trkpt lat="46.34917" lon="6.73609">
        <ele>1818</ele>
        <time>2015-10-25T11:07:58Z</time>
      </trkpt>
      <trkpt lat="46.34917" lon="6.73582">
        <ele>1811</ele>
        <time>2015-10-25T11:08:20Z</time>
      </trkpt>
      <trkpt lat="46.34913" lon="6.73556">
        <ele>1806.38</ele>
        <time>2015-10-25T11:08:37Z</time>
      </trkpt>
      <trkpt lat="46.34896" lon="6.73566">
        <ele>1800.62</ele>
        <time>2015-10-25T11:09:09Z</time>
      </trkpt>
      <trkpt lat="46.34843" lon="6.73544">
        <ele>1775.67</ele>
        <time>2015-10-25T11:10:33Z</time>
      </trkpt>
      <trkpt lat="46.34824" lon="6.73552">
        <ele>1776.01</ele>
        <time>2015-10-25T11:11:47Z</time>
      </trkpt>
      <trkpt lat="46.3481" lon="6.73536">
        <ele>1777.28</ele>
        <time>2015-10-25T11:12:08Z</time>
      </trkpt>
      <trkpt lat="46.34794" lon="6.73523">
        <ele>1779.28</ele>
        <time>2015-10-25T11:12:22Z</time>
      </trkpt>
      <trkpt lat="46.34779" lon="6.73506">
        <ele>1779.24</ele>
        <time>2015-10-25T11:12:45Z</time>
      </trkpt>
      <trkpt lat="46.34755" lon="6.73484">
        <ele>1779.56</ele>
        <time>2015-10-25T11:13:21Z</time>
      </trkpt>
      <trkpt lat="46.34742" lon="6.73465">
        <ele>1775.44</ele>
        <time>2015-10-25T11:13:42Z</time>
      </trkpt>
      <trkpt lat="46.34724" lon="6.73457">
        <ele>1774.74</ele>
        <time>2015-10-25T11:14:46Z</time>
      </trkpt>
      <trkpt lat="46.34711" lon="6.73439">
        <ele>1771.26</ele>
        <time>2015-10-25T11:15:02Z</time>
      </trkpt>
      <trkpt lat="46.34696" lon="6.73424">
        <ele>1769.23</ele>
        <time>2015-10-25T11:15:52Z</time>
      </trkpt>
      <trkpt lat="46.34678" lon="6.73429">
        <ele>1772.33</ele>
        <time>2015-10-25T11:16:11Z</time>
      </trkpt>
      <trkpt lat="46.34673" lon="6.73404">
        <ele>1768.6</ele>
        <time>2015-10-25T11:16:39Z</time>
      </trkpt>
      <trkpt lat="46.34676" lon="6.73378">
        <ele>1764.78</ele>
        <time>2015-10-25T11:17:03Z</time>
      </trkpt>
      <trkpt lat="46.34676" lon="6.73351">
        <ele>1761.36</ele>
        <time>2015-10-25T11:17:23Z</time>
      </trkpt>
      <trkpt lat="46.34678" lon="6.73324">
        <ele>1758.64</ele>
        <time>2015-10-25T11:17:42Z</time>
      </trkpt>
      <trkpt lat="46.34653" lon="6.73301">
        <ele>1758.6</ele>
        <time>2015-10-25T11:18:19Z</time>
      </trkpt>
      <trkpt lat="46.34638" lon="6.73317">
        <ele>1757.91</ele>
        <time>2015-10-25T11:18:39Z</time>
      </trkpt>
      <trkpt lat="46.3462" lon="6.73318">
        <ele>1756.69</ele>
        <time>2015-10-25T11:18:55Z</time>
      </trkpt>
      <trkpt lat="46.34603" lon="6.7331">
        <ele>1755.23</ele>
        <time>2015-10-25T11:19:23Z</time>
      </trkpt>
      <trkpt lat="46.34586" lon="6.733">
        <ele>1753.58</ele>
        <time>2015-10-25T11:19:40Z</time>
      </trkpt>
      <trkpt lat="46.34588" lon="6.73274">
        <ele>1752.49</ele>
        <time>2015-10-25T11:19:42Z</time>
      </trkpt>
      <trkpt lat="46.34576" lon="6.73294">
        <ele>1753.91</ele>
        <time>2015-10-25T11:19:48Z</time>
      </trkpt>
      <trkpt lat="46.34558" lon="6.73277">
        <ele>1755.3</ele>
        <time>2015-10-25T11:20:20Z</time>
      </trkpt>
      <trkpt lat="46.34579" lon="6.7329">
        <ele>1753.44</ele>
        <time>2015-10-25T11:36:42Z</time>
      </trkpt>
      <trkpt lat="46.34573" lon="6.73265">
        <ele>1753.02</ele>
        <time>2015-10-25T11:47:20Z</time>
      </trkpt>
      <trkpt lat="46.34574" lon="6.73239">
        <ele>1752.43</ele>
        <time>2015-10-25T11:47:52Z</time>
      </trkpt>
      <trkpt lat="46.34579" lon="6.73214">
        <ele>1752.43</ele>
        <time>2015-10-25T11:48:10Z</time>
      </trkpt>
      <trkpt lat="46.34579" lon="6.73187">
        <ele>1753.03</ele>
        <time>2015-10-25T11:48:28Z</time>
      </trkpt>
      <trkpt lat="46.34577" lon="6.73161">
        <ele>1753.28</ele>
        <time>2015-10-25T11:48:49Z</time>
      </trkpt>
      <trkpt lat="46.34572" lon="6.73135">
        <ele>1752.14</ele>
        <time>2015-10-25T11:49:08Z</time>
      </trkpt>
      <trkpt lat="46.34577" lon="6.73109">
        <ele>1748.9</ele>
        <time>2015-10-25T11:49:28Z</time>
      </trkpt>
      <trkpt lat="46.34584" lon="6.73084">
        <ele>1745.04</ele>
        <time>2015-10-25T11:49:45Z</time>
      </trkpt>
      <trkpt lat="46.34588" lon="6.73058">
        <ele>1740.39</ele>
        <time>2015-10-25T11:50:06Z</time>
      </trkpt>
      <trkpt lat="46.34596" lon="6.73035">
        <ele>1735.27</ele>
        <time>2015-10-25T11:50:30Z</time>
      </trkpt>
      <trkpt lat="46.34609" lon="6.73015">
        <ele>1729.62</ele>
        <time>2015-10-25T11:50:53Z</time>
      </trkpt>
      <trkpt lat="46.34615" lon="6.72989">
        <ele>1724.07</ele>
        <time>2015-10-25T11:51:11Z</time>
      </trkpt>
      <trkpt lat="46.34617" lon="6.72963">
        <ele>1720.44</ele>
        <time>2015-10-25T11:51:30Z</time>
      </trkpt>
      <trkpt lat="46.34609" lon="6.7294">
        <ele>1718.86</ele>
        <time>2015-10-25T11:51:49Z</time>
      </trkpt>
      <trkpt lat="46.34611" lon="6.72913">
        <ele>1715.11</ele>
        <time>2015-10-25T11:52:12Z</time>
      </trkpt>
      <trkpt lat="46.346" lon="6.72893">
        <ele>1713.91</ele>
        <time>2015-10-25T11:52:30Z</time>
      </trkpt>
      <trkpt lat="46.34593" lon="6.72868">
        <ele>1711.72</ele>
        <time>2015-10-25T11:52:48Z</time>
      </trkpt>
      <trkpt lat="46.34587" lon="6.72843">
        <ele>1710.08</ele>
        <time>2015-10-25T11:53:04Z</time>
      </trkpt>
      <trkpt lat="46.34589" lon="6.72817">
        <ele>1706.17</ele>
        <time>2015-10-25T11:53:20Z</time>
      </trkpt>
      <trkpt lat="46.34596" lon="6.72792">
        <ele>1700.68</ele>
        <time>2015-10-25T11:53:52Z</time>
      </trkpt>
      <trkpt lat="46.3461" lon="6.72775">
        <ele>1694.34</ele>
        <time>2015-10-25T11:54:14Z</time>
      </trkpt>
      <trkpt lat="46.34626" lon="6.7279">
        <ele>1692.21</ele>
        <time>2015-10-25T11:54:42Z</time>
      </trkpt>
      <trkpt lat="46.34644" lon="6.72796">
        <ele>1688.25</ele>
        <time>2015-10-25T11:55:03Z</time>
      </trkpt>
      <trkpt lat="46.34661" lon="6.72808">
        <ele>1685.99</ele>
        <time>2015-10-25T11:55:20Z</time>
      </trkpt>
      <trkpt lat="46.34679" lon="6.7281">
        <ele>1682.34</ele>
        <time>2015-10-25T11:55:38Z</time>
      </trkpt>
      <trkpt lat="46.34686" lon="6.72836">
        <ele>1685.01</ele>
        <time>2015-10-25T11:56:47Z</time>
      </trkpt>
      <trkpt lat="46.34691" lon="6.72862">
        <ele>1689.05</ele>
        <time>2015-10-25T11:57:04Z</time>
      </trkpt>
      <trkpt lat="46.34699" lon="6.72886">
        <ele>1690.76</ele>
        <time>2015-10-25T11:57:29Z</time>
      </trkpt>
      <trkpt lat="46.3471" lon="6.72906">
        <ele>1690.14</ele>
        <time>2015-10-25T11:57:43Z</time>
      </trkpt>
      <trkpt lat="46.34727" lon="6.72915">
        <ele>1684.87</ele>
        <time>2015-10-25T11:57:57Z</time>
      </trkpt>
      <trkpt lat="46.34745" lon="6.72908">
        <ele>1677.09</ele>
        <time>2015-10-25T11:58:13Z</time>
      </trkpt>
      <trkpt lat="46.34754" lon="6.72883">
        <ele>1674.85</ele>
        <time>2015-10-25T11:58:30Z</time>
      </trkpt>
      <trkpt lat="46.34753" lon="6.72856">
        <ele>1672.8</ele>
        <time>2015-10-25T11:58:43Z</time>
      </trkpt>
      <trkpt lat="46.34755" lon="6.72828">
        <ele>1671.77</ele>
        <time>2015-10-25T11:59:02Z</time>
      </trkpt>
      <trkpt lat="46.34756" lon="6.72801">
        <ele>1670.49</ele>
        <time>2015-10-25T11:59:42Z</time>
      </trkpt>
      <trkpt lat="46.34758" lon="6.72774">
        <ele>1669.91</ele>
        <time>2015-10-25T12:00:02Z</time>
      </trkpt>
      <trkpt lat="46.34763" lon="6.72749">
        <ele>1671.08</ele>
        <time>2015-10-25T12:00:19Z</time>
      </trkpt>
      <trkpt lat="46.34757" lon="6.72723">
        <ele>1666.43</ele>
        <time>2015-10-25T12:00:40Z</time>
      </trkpt>
      <trkpt lat="46.34757" lon="6.72696">
        <ele>1665.11</ele>
        <time>2015-10-25T12:00:57Z</time>
      </trkpt>
      <trkpt lat="46.34759" lon="6.72669">
        <ele>1664.78</ele>
        <time>2015-10-25T12:01:14Z</time>
      </trkpt>
      <trkpt lat="46.34762" lon="6.72642">
        <ele>1664.95</ele>
        <time>2015-10-25T12:01:31Z</time>
      </trkpt>
      <trkpt lat="46.34757" lon="6.72617">
        <ele>1660.88</ele>
        <time>2015-10-25T12:01:50Z</time>
      </trkpt>
      <trkpt lat="46.34747" lon="6.72594">
        <ele>1655.61</ele>
        <time>2015-10-25T12:02:09Z</time>
      </trkpt>
      <trkpt lat="46.34737" lon="6.72573">
        <ele>1650.15</ele>
        <time>2015-10-25T12:02:25Z</time>
      </trkpt>
      <trkpt lat="46.34727" lon="6.72549">
        <ele>1644.21</ele>
        <time>2015-10-25T12:02:46Z</time>
      </trkpt>
      <trkpt lat="46.34724" lon="6.72523">
        <ele>1640.74</ele>
        <time>2015-10-25T12:03:02Z</time>
      </trkpt>
      <trkpt lat="46.34721" lon="6.72495">
        <ele>1636.85</ele>
        <time>2015-10-25T12:03:18Z</time>
      </trkpt>
      <trkpt lat="46.34719" lon="6.72469">
        <ele>1634.88</ele>
        <time>2015-10-25T12:03:33Z</time>
      </trkpt>
      <trkpt lat="46.34708" lon="6.72449">
        <ele>1630.55</ele>
        <time>2015-10-25T12:03:59Z</time>
      </trkpt>
      <trkpt lat="46.34694" lon="6.7243">
        <ele>1626.48</ele>
        <time>2015-10-25T12:04:21Z</time>
      </trkpt>
      <trkpt lat="46.34692" lon="6.72404">
        <ele>1625.15</ele>
        <time>2015-10-25T12:04:40Z</time>
      </trkpt>
      <trkpt lat="46.34689" lon="6.72378">
        <ele>1623.44</ele>
        <time>2015-10-25T12:04:59Z</time>
      </trkpt>
      <trkpt lat="46.34694" lon="6.72352">
        <ele>1623.31</ele>
        <time>2015-10-25T12:06:05Z</time>
      </trkpt>
      <trkpt lat="46.34695" lon="6.72325">
        <ele>1622.2</ele>
        <time>2015-10-25T12:06:26Z</time>
      </trkpt>
      <trkpt lat="46.347" lon="6.723">
        <ele>1621.34</ele>
        <time>2015-10-25T12:06:48Z</time>
      </trkpt>
      <trkpt lat="46.34709" lon="6.72276">
        <ele>1621.08</ele>
        <time>2015-10-25T12:07:06Z</time>
      </trkpt>
      <trkpt lat="46.3472" lon="6.72254">
        <ele>1620.97</ele>
        <time>2015-10-25T12:07:28Z</time>
      </trkpt>
      <trkpt lat="46.34721" lon="6.72228">
        <ele>1617.96</ele>
        <time>2015-10-25T12:07:44Z</time>
      </trkpt>
      <trkpt lat="46.34724" lon="6.722">
        <ele>1614.84</ele>
        <time>2015-10-25T12:08:03Z</time>
      </trkpt>
      <trkpt lat="46.34727" lon="6.72174">
        <ele>1611.82</ele>
        <time>2015-10-25T12:08:26Z</time>
      </trkpt>
      <trkpt lat="46.34732" lon="6.72147">
        <ele>1607.79</ele>
        <time>2015-10-25T12:08:41Z</time>
      </trkpt>
      <trkpt lat="46.34732" lon="6.72121">
        <ele>1603.05</ele>
        <time>2015-10-25T12:09:03Z</time>
      </trkpt>
      <trkpt lat="46.34733" lon="6.72094">
        <ele>1598.39</ele>
        <time>2015-10-25T12:09:19Z</time>
      </trkpt>
      <trkpt lat="46.34724" lon="6.72069">
        <ele>1592.93</ele>
        <time>2015-10-25T12:09:45Z</time>
      </trkpt>
      <trkpt lat="46.34712" lon="6.72047">
        <ele>1587.96</ele>
        <time>2015-10-25T12:10:06Z</time>
      </trkpt>
      <trkpt lat="46.34708" lon="6.72021">
        <ele>1583.2</ele>
        <time>2015-10-25T12:10:31Z</time>
      </trkpt>
      <trkpt lat="46.34715" lon="6.71997">
        <ele>1579.31</ele>
        <time>2015-10-25T12:10:52Z</time>
      </trkpt>
      <trkpt lat="46.34721" lon="6.71971">
        <ele>1574.09</ele>
        <time>2015-10-25T12:11:11Z</time>
      </trkpt>
      <trkpt lat="46.34728" lon="6.71945">
        <ele>1568.34</ele>
        <time>2015-10-25T12:11:36Z</time>
      </trkpt>
      <trkpt lat="46.34725" lon="6.71919">
        <ele>1562.74</ele>
        <time>2015-10-25T12:11:59Z</time>
      </trkpt>
      <trkpt lat="46.34722" lon="6.71891">
        <ele>1557.05</ele>
        <time>2015-10-25T12:12:20Z</time>
      </trkpt>
      <trkpt lat="46.34721" lon="6.71863">
        <ele>1551.59</ele>
        <time>2015-10-25T12:12:46Z</time>
      </trkpt>
      <trkpt lat="46.34723" lon="6.71836">
        <ele>1545.83</ele>
        <time>2015-10-25T12:13:14Z</time>
      </trkpt>
      <trkpt lat="46.3471" lon="6.71816">
        <ele>1543.82</ele>
        <time>2015-10-25T12:13:41Z</time>
      </trkpt>
      <trkpt lat="46.34694" lon="6.71799">
        <ele>1542.97</ele>
        <time>2015-10-25T12:14:02Z</time>
      </trkpt>
      <trkpt lat="46.3469" lon="6.71774">
        <ele>1538.22</ele>
        <time>2015-10-25T12:14:22Z</time>
      </trkpt>
      <trkpt lat="46.34685" lon="6.71747">
        <ele>1532.98</ele>
        <time>2015-10-25T12:14:43Z</time>
      </trkpt>
      <trkpt lat="46.34683" lon="6.7172">
        <ele>1524.79</ele>
        <time>2015-10-25T12:15:04Z</time>
      </trkpt>
      <trkpt lat="46.3468" lon="6.71694">
        <ele>1516.69</ele>
        <time>2015-10-25T12:15:21Z</time>
      </trkpt>
      <trkpt lat="46.34677" lon="6.71668">
        <ele>1508.17</ele>
        <time>2015-10-25T12:15:43Z</time>
      </trkpt>
      <trkpt lat="46.34683" lon="6.71642">
        <ele>1500.67</ele>
        <time>2015-10-25T12:16:09Z</time>
      </trkpt>
      <trkpt lat="46.34671" lon="6.71622">
        <ele>1492.36</ele>
        <time>2015-10-25T12:16:32Z</time>
      </trkpt>
      <trkpt lat="46.34669" lon="6.71595">
        <ele>1482.68</ele>
        <time>2015-10-25T12:16:53Z</time>
      </trkpt>
      <trkpt lat="46.34656" lon="6.71576">
        <ele>1474.61</ele>
        <time>2015-10-25T12:17:43Z</time>
      </trkpt>
      <trkpt lat="46.34638" lon="6.71575">
        <ele>1470.97</ele>
        <time>2015-10-25T12:18:04Z</time>
      </trkpt>
      <trkpt lat="46.34621" lon="6.71586">
        <ele>1471.98</ele>
        <time>2015-10-25T12:18:26Z</time>
      </trkpt>
      <trkpt lat="46.34603" lon="6.71592">
        <ele>1471.1</ele>
        <time>2015-10-25T12:18:40Z</time>
      </trkpt>
      <trkpt lat="46.34584" lon="6.71593">
        <ele>1468.62</ele>
        <time>2015-10-25T12:19:01Z</time>
      </trkpt>
      <trkpt lat="46.34566" lon="6.71595">
        <ele>1462.74</ele>
        <time>2015-10-25T12:19:15Z</time>
      </trkpt>
      <trkpt lat="46.34548" lon="6.71594">
        <ele>1455.65</ele>
        <time>2015-10-25T12:19:39Z</time>
      </trkpt>
      <trkpt lat="46.3453" lon="6.71594">
        <ele>1448.89</ele>
        <time>2015-10-25T12:20:03Z</time>
      </trkpt>
      <trkpt lat="46.34513" lon="6.71605">
        <ele>1445.28</ele>
        <time>2015-10-25T12:20:18Z</time>
      </trkpt>
      <trkpt lat="46.34497" lon="6.71621">
        <ele>1444.59</ele>
        <time>2015-10-25T12:20:35Z</time>
      </trkpt>
      <trkpt lat="46.34485" lon="6.71599">
        <ele>1440.23</ele>
        <time>2015-10-25T12:21:11Z</time>
      </trkpt>
      <trkpt lat="46.3448" lon="6.71573">
        <ele>1434.86</ele>
        <time>2015-10-25T12:21:37Z</time>
      </trkpt>
      <trkpt lat="46.34467" lon="6.71554">
        <ele>1432.81</ele>
        <time>2015-10-25T12:22:02Z</time>
      </trkpt>
      <trkpt lat="46.34466" lon="6.71527">
        <ele>1428.05</ele>
        <time>2015-10-25T12:22:35Z</time>
      </trkpt>
      <trkpt lat="46.34471" lon="6.71502">
        <ele>1422.34</ele>
        <time>2015-10-25T12:23:02Z</time>
      </trkpt>
      <trkpt lat="46.34481" lon="6.71479">
        <ele>1414.38</ele>
        <time>2015-10-25T12:24:12Z</time>
      </trkpt>
      <trkpt lat="46.34485" lon="6.71453">
        <ele>1406.3</ele>
        <time>2015-10-25T12:24:34Z</time>
      </trkpt>
      <trkpt lat="46.34497" lon="6.71433">
        <ele>1396.2</ele>
        <time>2015-10-25T12:24:56Z</time>
      </trkpt>
      <trkpt lat="46.34509" lon="6.71411">
        <ele>1390.88</ele>
        <time>2015-10-25T12:25:19Z</time>
      </trkpt>
      <trkpt lat="46.34527" lon="6.71409">
        <ele>1395.04</ele>
        <time>2015-10-25T12:25:41Z</time>
      </trkpt>
      <trkpt lat="46.34546" lon="6.71414">
        <ele>1401.34</ele>
        <time>2015-10-25T12:25:55Z</time>
      </trkpt>
      <trkpt lat="46.34555" lon="6.7139">
        <ele>1395.89</ele>
        <time>2015-10-25T12:26:39Z</time>
      </trkpt>
      <trkpt lat="46.34567" lon="6.7137">
        <ele>1391.99</ele>
        <time>2015-10-25T12:26:58Z</time>
      </trkpt>
      <trkpt lat="46.34573" lon="6.71345">
        <ele>1384.31</ele>
        <time>2015-10-25T12:27:13Z</time>
      </trkpt>
      <trkpt lat="46.34581" lon="6.71321">
        <ele>1377.81</ele>
        <time>2015-10-25T12:27:28Z</time>
      </trkpt>
      <trkpt lat="46.34597" lon="6.71308">
        <ele>1380.39</ele>
        <time>2015-10-25T12:27:46Z</time>
      </trkpt>
      <trkpt lat="46.34613" lon="6.71296">
        <ele>1383.6</ele>
        <time>2015-10-25T12:28:03Z</time>
      </trkpt>
      <trkpt lat="46.34613" lon="6.7127">
        <ele>1374.82</ele>
        <time>2015-10-25T12:28:31Z</time>
      </trkpt>
      <trkpt lat="46.34612" lon="6.71242">
        <ele>1365.54</ele>
        <time>2015-10-25T12:28:48Z</time>
      </trkpt>
      <trkpt lat="46.34615" lon="6.71215">
        <ele>1358.23</ele>
        <time>2015-10-25T12:29:09Z</time>
      </trkpt>
      <trkpt lat="46.34601" lon="6.712">
        <ele>1347.82</ele>
        <time>2015-10-25T12:29:35Z</time>
      </trkpt>
      <trkpt lat="46.34601" lon="6.71172">
        <ele>1339.59</ele>
        <time>2015-10-25T12:29:57Z</time>
      </trkpt>
      <trkpt lat="46.34604" lon="6.71146">
        <ele>1332.73</ele>
        <time>2015-10-25T12:30:20Z</time>
      </trkpt>
      <trkpt lat="46.34605" lon="6.71119">
        <ele>1325.41</ele>
        <time>2015-10-25T12:30:33Z</time>
      </trkpt>
      <trkpt lat="46.34603" lon="6.71092">
        <ele>1317.78</ele>
        <time>2015-10-25T12:30:49Z</time>
      </trkpt>
      <trkpt lat="46.34611" lon="6.71067">
        <ele>1308.44</ele>
        <time>2015-10-25T12:31:07Z</time>
      </trkpt>
      <trkpt lat="46.34593" lon="6.71063">
        <ele>1309.2</ele>
        <time>2015-10-25T12:31:46Z</time>
      </trkpt>
      <trkpt lat="46.34576" lon="6.71054">
        <ele>1309.45</ele>
        <time>2015-10-25T12:32:16Z</time>
      </trkpt>
      <trkpt lat="46.34576" lon="6.71023">
        <ele>1299.94</ele>
        <time>2015-10-25T12:32:31Z</time>
      </trkpt>
      <trkpt lat="46.34592" lon="6.7101">
        <ele>1291.39</ele>
        <time>2015-10-25T12:32:48Z</time>
      </trkpt>
      <trkpt lat="46.34606" lon="6.70994">
        <ele>1282.1</ele>
        <time>2015-10-25T12:33:01Z</time>
      </trkpt>
      <trkpt lat="46.34621" lon="6.71009">
        <ele>1284.25</ele>
        <time>2015-10-25T12:33:21Z</time>
      </trkpt>
      <trkpt lat="46.34635" lon="6.71026">
        <ele>1288.15</ele>
        <time>2015-10-25T12:33:41Z</time>
      </trkpt>
      <trkpt lat="46.34649" lon="6.71048">
        <ele>1295.31</ele>
        <time>2015-10-25T12:34:06Z</time>
      </trkpt>
      <trkpt lat="46.34668" lon="6.71051">
        <ele>1293.9</ele>
        <time>2015-10-25T12:34:25Z</time>
      </trkpt>
      <trkpt lat="46.34687" lon="6.71052">
        <ele>1292.85</ele>
        <time>2015-10-25T12:34:35Z</time>
      </trkpt>
      <trkpt lat="46.34704" lon="6.71041">
        <ele>1285.43</ele>
        <time>2015-10-25T12:34:50Z</time>
      </trkpt>
      <trkpt lat="46.34723" lon="6.71032">
        <ele>1279.02</ele>
        <time>2015-10-25T12:35:03Z</time>
      </trkpt>
      <trkpt lat="46.3474" lon="6.71022">
        <ele>1272.52</ele>
        <time>2015-10-25T12:35:20Z</time>
      </trkpt>
      <trkpt lat="46.34757" lon="6.71013">
        <ele>1268.08</ele>
        <time>2015-10-25T12:35:33Z</time>
      </trkpt>
      <trkpt lat="46.34774" lon="6.71005">
        <ele>1266.58</ele>
        <time>2015-10-25T12:35:51Z</time>
      </trkpt>
      <trkpt lat="46.34792" lon="6.70995">
        <ele>1264.95</ele>
        <time>2015-10-25T12:36:09Z</time>
      </trkpt>
      <trkpt lat="46.3481" lon="6.70986">
        <ele>1264.19</ele>
        <time>2015-10-25T12:36:24Z</time>
      </trkpt>
      <trkpt lat="46.34828" lon="6.70981">
        <ele>1264.76</ele>
        <time>2015-10-25T12:36:38Z</time>
      </trkpt>
      <trkpt lat="46.34813" lon="6.70967">
        <ele>1257.17</ele>
        <time>2015-10-25T12:37:33Z</time>
      </trkpt>
      <trkpt lat="46.34793" lon="6.70958">
        <ele>1252.18</ele>
        <time>2015-10-25T12:38:00Z</time>
      </trkpt>
      <trkpt lat="46.34774" lon="6.70954">
        <ele>1249.03</ele>
        <time>2015-10-25T12:38:14Z</time>
      </trkpt>
      <trkpt lat="46.34758" lon="6.7094">
        <ele>1243.19</ele>
        <time>2015-10-25T12:38:32Z</time>
      </trkpt>
      <trkpt lat="46.34739" lon="6.70941">
        <ele>1243.8</ele>
        <time>2015-10-25T12:38:49Z</time>
      </trkpt>
      <trkpt lat="46.34722" lon="6.70933">
        <ele>1242.9</ele>
        <time>2015-10-25T12:39:22Z</time>
      </trkpt>
      <trkpt lat="46.34713" lon="6.70908">
        <ele>1236.26</ele>
        <time>2015-10-25T12:39:50Z</time>
      </trkpt>
      <trkpt lat="46.34696" lon="6.70893">
        <ele>1233.51</ele>
        <time>2015-10-25T12:40:05Z</time>
      </trkpt>
      <trkpt lat="46.34678" lon="6.70884">
        <ele>1232.63</ele>
        <time>2015-10-25T12:40:25Z</time>
      </trkpt>
      <trkpt lat="46.34664" lon="6.70867">
        <ele>1230.18</ele>
        <time>2015-10-25T12:40:40Z</time>
      </trkpt>
      <trkpt lat="46.34645" lon="6.70867">
        <ele>1233.8</ele>
        <time>2015-10-25T12:40:56Z</time>
      </trkpt>
      <trkpt lat="46.34656" lon="6.70846">
        <ele>1226.27</ele>
        <time>2015-10-25T12:41:23Z</time>
      </trkpt>
    </trkseg>
  </trk>
</gpx>